createdAt,value
2022-11-05T00:00:18.604Z,9.88
2022-11-05T00:03:12.161Z,10.23
2022-11-05T00:05:58.107Z,9.52
2022-11-05T00:08:43.572Z,9.20
2022-11-05T00:11:16.843Z,9.40
2022-11-05T00:14:03.483Z,8.90
2022-11-05T00:16:45.327Z,8.15
2022-11-05T00:19:13.398Z,9.30
2022-11-05T00:21:58.449Z,7.78
2022-11-05T00:24:43.926Z,8.20
2022-11-05T00:27:11.175Z,8.48
2022-11-05T00:29:37.820Z,8.93
2022-11-05T00:32:04.737Z,8.98
2022-11-05T00:34:31.396Z,9.38
2022-11-05T00:36:58.022Z,8.95
2022-11-05T00:39:24.856Z,10.02
2022-11-05T00:42:11.463Z,10.32
2022-11-05T00:44:56.546Z,9.70
2022-11-05T00:47:41.976Z,9.50
2022-11-05T00:50:10.531Z,10.63
2022-11-05T00:52:55.847Z,10.02
2022-11-05T00:55:24.087Z,9.85
2022-11-05T00:57:50.965Z,9.90
2022-11-05T01:00:17.923Z,10.20
2022-11-05T01:02:44.689Z,10.15
2022-11-05T01:05:11.738Z,10.65
2022-11-05T01:07:38.445Z,9.50
2022-11-05T01:10:05.737Z,10.75
2022-11-05T01:12:32.608Z,9.63
2022-11-05T01:14:59.250Z,10.32
2022-11-05T01:17:25.900Z,11.13
2022-11-05T01:19:52.510Z,11.23
2022-11-05T01:22:19.155Z,11.32
2022-11-05T01:24:45.975Z,12.57
2022-11-05T01:27:12.655Z,12.05
2022-11-05T01:29:39.293Z,12.65
2022-11-05T01:32:05.923Z,12.98
2022-11-05T01:34:32.532Z,14.00
2022-11-05T01:36:59.174Z,14.23
2022-11-05T01:39:25.804Z,14.57
2022-11-05T01:41:52.421Z,14.38
2022-11-05T01:44:58.159Z,14.82
2022-11-05T01:47:34.033Z,15.68
2022-11-05T01:50:06.765Z,16.45
2022-11-05T01:52:35.715Z,17.30
2022-11-05T01:55:03.972Z,16.38
2022-11-05T01:57:32.544Z,17.10
2022-11-05T02:00:00.830Z,16.85
2022-11-05T02:02:29.279Z,18.30
2022-11-05T02:05:00.990Z,17.48
2022-11-05T02:07:29.412Z,19.20
2022-11-05T02:10:06.786Z,18.38
2022-11-05T02:12:34.486Z,18.90
2022-11-05T02:15:01.103Z,19.73
2022-11-05T02:17:39.528Z,19.88
2022-11-05T02:20:31.167Z,20.15
2022-11-05T02:23:22.688Z,19.70
2022-11-05T02:26:07.999Z,19.75
2022-11-05T02:29:08.168Z,21.17
2022-11-05T02:31:56.395Z,22.20
2022-11-05T02:34:47.932Z,22.00
2022-11-05T02:37:40.619Z,21.10
2022-11-05T02:40:27.127Z,22.23
2022-11-05T02:43:03.607Z,21.77
2022-11-05T02:45:45.275Z,20.90
2022-11-05T02:48:36.238Z,21.13
2022-11-05T02:51:15.892Z,20.70
2022-11-05T02:53:54.071Z,20.95
2022-11-05T02:56:26.720Z,21.92
2022-11-05T02:58:53.331Z,23.63
2022-11-05T03:01:20.126Z,21.90
2022-11-05T03:03:55.177Z,21.55
2022-11-05T03:06:44.011Z,21.52
2022-11-05T03:09:35.317Z,23.00
2022-11-05T03:12:17.487Z,20.23
2022-11-05T03:14:53.427Z,22.13
2022-11-05T03:17:56.036Z,21.77
2022-11-05T03:21:00.154Z,21.40
2022-11-05T03:23:52.891Z,20.35
2022-11-05T03:26:22.578Z,20.60
2022-11-05T03:28:55.844Z,20.20
2022-11-05T03:31:24.507Z,21.10
2022-11-05T03:33:53.131Z,21.95
2022-11-05T03:36:41.722Z,22.02
2022-11-05T03:39:15.572Z,20.70
2022-11-05T03:41:44.931Z,20.88
2022-11-05T03:44:13.825Z,20.65
2022-11-05T03:46:49.219Z,20.92
2022-11-05T03:49:21.327Z,21.45
2022-11-05T03:52:00.286Z,20.27
2022-11-05T03:54:27.472Z,21.60
2022-11-05T03:57:16.173Z,19.95
2022-11-05T03:59:45.421Z,21.15
2022-11-05T04:02:16.899Z,21.35
2022-11-05T04:04:43.922Z,21.40
2022-11-05T04:07:30.227Z,21.83
2022-11-05T04:10:15.588Z,22.70
2022-11-05T04:13:01.177Z,23.40
2022-11-05T04:15:29.654Z,23.00
2022-11-05T04:17:58.831Z,22.20
2022-11-05T04:20:45.145Z,20.92
2022-11-05T04:23:30.532Z,18.80
2022-11-05T04:25:57.144Z,19.52
2022-11-05T04:28:43.752Z,22.27
2022-11-05T04:31:10.372Z,19.00
2022-11-05T04:33:36.987Z,20.40
2022-11-05T04:36:03.824Z,22.60
2022-11-05T04:38:30.533Z,23.00
2022-11-05T04:41:12.984Z,21.85
2022-11-05T04:43:39.736Z,21.73
2022-11-05T04:46:06.425Z,21.92
2022-11-05T04:48:33.088Z,20.88
2022-11-05T04:50:59.812Z,23.02
2022-11-05T04:53:26.415Z,22.05
2022-11-05T04:55:53.092Z,23.25
2022-11-05T04:58:19.704Z,23.85
2022-11-05T05:00:46.378Z,22.10
2022-11-05T05:03:13.383Z,23.05
2022-11-05T05:05:40.227Z,23.23
2022-11-05T05:08:06.865Z,24.20
2022-11-05T05:10:33.588Z,23.10
2022-11-05T05:13:00.209Z,23.00
2022-11-05T05:15:26.836Z,22.83
2022-11-05T05:17:53.675Z,22.20
2022-11-05T05:20:39.070Z,22.30
2022-11-05T05:23:05.800Z,22.42
2022-11-05T05:25:32.439Z,23.48
2022-11-05T05:27:59.087Z,23.80
2022-11-05T05:30:25.979Z,23.85
2022-11-05T05:32:52.604Z,23.20
2022-11-05T05:35:19.242Z,19.58
2022-11-05T05:37:46.032Z,20.33
2022-11-05T05:40:12.747Z,18.30
2022-11-05T05:42:43.055Z,19.63
2022-11-05T05:45:11.472Z,21.45
2022-11-05T05:47:38.550Z,19.25
2022-11-05T05:50:05.615Z,17.15
2022-11-05T05:52:32.233Z,20.70
2022-11-05T05:54:58.875Z,22.13
2022-11-05T05:57:25.546Z,19.88
2022-11-05T05:59:52.172Z,20.20
2022-11-05T06:02:18.904Z,19.73
2022-11-05T06:04:45.615Z,18.23
2022-11-05T06:07:12.239Z,20.83
2022-11-05T06:09:38.943Z,21.92
2022-11-05T06:12:05.842Z,17.95
2022-11-05T06:14:32.488Z,21.40
2022-11-05T06:16:59.100Z,21.27
2022-11-05T06:19:25.769Z,21.65
2022-11-05T06:21:52.407Z,19.50
2022-11-05T06:24:19.053Z,18.75
2022-11-05T06:26:45.804Z,19.85
2022-11-05T06:29:12.444Z,19.20
2022-11-05T06:31:39.116Z,21.05
2022-11-05T06:34:05.783Z,19.77
2022-11-05T06:36:32.471Z,19.95
2022-11-05T06:38:59.137Z,21.65
2022-11-05T06:41:25.856Z,21.52
2022-11-05T06:43:52.500Z,20.15
2022-11-05T06:46:19.664Z,19.80
2022-11-05T06:48:47.388Z,17.88
2022-11-05T06:51:14.019Z,17.58
2022-11-05T06:53:40.682Z,18.30
2022-11-05T06:56:08.065Z,17.17
2022-11-05T06:58:34.737Z,17.10
2022-11-05T07:01:03.422Z,15.07
2022-11-05T07:03:30.690Z,17.02
2022-11-05T07:05:59.791Z,14.35
2022-11-05T07:08:30.251Z,15.13
2022-11-05T07:10:56.943Z,13.90
2022-11-05T07:13:23.557Z,13.98
2022-11-05T07:15:50.198Z,12.20
2022-11-05T07:18:16.862Z,12.15
2022-11-05T07:20:43.560Z,11.98
2022-11-05T07:23:13.206Z,11.55
2022-11-05T07:25:41.685Z,11.63
2022-11-05T07:28:09.471Z,10.55
2022-11-05T07:30:36.987Z,10.32
2022-11-05T07:33:04.346Z,9.27
2022-11-05T07:35:31.199Z,8.93
2022-11-05T07:37:58.116Z,8.07
2022-11-05T07:40:26.785Z,7.20
2022-11-05T07:43:01.277Z,7.63
2022-11-05T07:45:30.351Z,6.35
2022-11-05T07:48:01.925Z,7.32
2022-11-05T07:50:31.394Z,6.60
2022-11-05T07:53:14.056Z,6.13
2022-11-05T07:55:45.868Z,6.05
2022-11-05T07:58:12.526Z,6.25
2022-11-05T08:00:39.394Z,5.47
2022-11-05T08:03:10.405Z,4.78
2022-11-05T08:05:39.626Z,5.95
2022-11-05T08:08:08.856Z,5.22
2022-11-05T08:10:36.791Z,4.53
2022-11-05T08:13:04.379Z,4.50
2022-11-05T08:15:31.844Z,5.43
2022-11-05T08:18:03.661Z,5.43
2022-11-05T08:20:30.961Z,4.65
2022-11-05T08:22:57.986Z,4.55
2022-11-05T08:25:24.836Z,4.57
2022-11-05T08:27:59.908Z,5.10
2022-11-05T08:30:26.589Z,5.15
2022-11-05T08:32:58.198Z,4.50
2022-11-05T08:35:25.808Z,3.90
2022-11-05T08:37:59.140Z,3.75
2022-11-05T08:40:26.416Z,3.80
2022-11-05T08:42:53.348Z,3.83
2022-11-05T08:45:20.025Z,3.85
2022-11-05T08:47:46.633Z,3.45
2022-11-05T08:50:13.328Z,3.60
2022-11-05T08:52:40.824Z,3.47
2022-11-05T08:55:08.046Z,3.40
2022-11-05T08:57:34.759Z,3.00
2022-11-05T09:00:01.389Z,3.15
2022-11-05T09:02:28.206Z,3.30
2022-11-05T09:04:54.904Z,3.10
2022-11-05T09:07:22.839Z,3.83
2022-11-05T09:09:49.562Z,3.00
2022-11-05T09:12:16.329Z,3.17
2022-11-05T09:14:43.010Z,3.15
2022-11-05T09:17:18.726Z,3.17
2022-11-05T09:19:45.785Z,3.55
2022-11-05T09:22:12.955Z,3.17
2022-11-05T09:24:40.675Z,3.10
2022-11-05T09:27:13.315Z,2.72
2022-11-05T09:29:40.493Z,2.95
2022-11-05T09:32:07.686Z,3.13
2022-11-05T09:34:34.969Z,3.03
2022-11-05T09:37:02.068Z,2.90
2022-11-05T09:39:28.793Z,2.88
2022-11-05T09:42:02.464Z,2.95
2022-11-05T09:45:01.757Z,3.10
2022-11-05T09:47:44.157Z,3.22
2022-11-05T09:50:22.475Z,2.30
2022-11-05T09:52:49.346Z,2.42
2022-11-05T09:55:23.364Z,2.63
2022-11-05T09:57:57.102Z,2.63
2022-11-05T10:00:23.897Z,2.88
2022-11-05T10:03:02.946Z,2.35
2022-11-05T10:05:32.519Z,2.47
2022-11-05T10:08:13.467Z,2.72
2022-11-05T10:10:46.521Z,3.00
2022-11-05T10:13:50.523Z,2.83
2022-11-05T10:16:40.989Z,3.10
2022-11-05T10:19:22.067Z,2.20
2022-11-05T10:24:35.904Z,3.33
2022-11-05T10:27:03.906Z,2.25
2022-11-05T10:29:34.327Z,2.70
2022-11-05T10:32:05.553Z,2.60
2022-11-05T10:34:36.032Z,1.75
2022-11-05T10:37:03.617Z,2.88
2022-11-05T10:39:32.435Z,2.67
2022-11-05T10:42:35.950Z,2.50
2022-11-05T10:45:30.478Z,2.72
2022-11-05T10:48:24.880Z,2.78
2022-11-05T10:50:51.700Z,1.98
2022-11-05T10:53:23.309Z,2.28
2022-11-05T10:55:52.019Z,3.38
2022-11-05T10:58:28.842Z,2.25
2022-11-05T11:06:27.237Z,2.58
2022-11-05T11:09:01.853Z,2.38
2022-11-05T11:11:31.347Z,2.67
2022-11-05T11:13:57.957Z,2.30
2022-11-05T11:16:27.490Z,2.45
2022-11-05T11:18:56.903Z,2.95
2022-11-05T11:21:24.362Z,3.50
2022-11-05T11:23:58.369Z,5.70
2022-11-05T11:26:28.668Z,2.70
2022-11-05T11:29:15.758Z,3.13
2022-11-05T11:31:42.499Z,3.13
2022-11-05T11:34:25.135Z,3.88
2022-11-05T11:36:56.104Z,3.25
2022-11-05T11:39:27.567Z,3.50
2022-11-05T11:42:05.587Z,3.65
2022-11-05T11:44:39.803Z,3.53
2022-11-05T11:47:14.405Z,3.60
2022-11-05T11:49:52.804Z,4.32
2022-11-05T11:52:34.740Z,3.83
2022-11-05T11:55:13.525Z,3.72
2022-11-05T11:57:45.918Z,3.47
2022-11-05T12:00:13.314Z,3.20
2022-11-05T12:02:49.249Z,3.58
2022-11-05T12:05:31.383Z,3.37
2022-11-05T12:08:03.893Z,3.50
2022-11-05T12:10:36.452Z,3.40
2022-11-05T12:13:21.543Z,3.22
2022-11-05T12:15:57.951Z,3.35
2022-11-05T12:19:05.154Z,3.65
2022-11-05T12:21:57.790Z,3.70
2022-11-05T12:24:47.884Z,3.60
2022-11-05T12:27:58.987Z,3.75
2022-11-05T12:30:28.012Z,3.70
2022-11-05T12:33:32.280Z,3.05
2022-11-05T12:36:22.707Z,2.75
2022-11-05T12:39:27.294Z,3.00
2022-11-05T12:42:10.065Z,3.30
2022-11-05T12:44:58.328Z,2.80
2022-11-05T12:47:36.948Z,2.63
2022-11-05T12:50:03.528Z,3.75
2022-11-05T12:53:10.153Z,2.75
2022-11-05T12:55:44.072Z,3.05
2022-11-05T13:01:03.385Z,2.92
2022-11-05T13:03:45.880Z,3.42
2022-11-05T13:06:15.855Z,2.88
2022-11-05T13:09:06.761Z,2.60
2022-11-05T13:11:42.099Z,3.40
2022-11-05T13:14:19.693Z,2.88
2022-11-05T13:17:01.173Z,2.65
2022-11-05T13:19:35.960Z,2.67
2022-11-05T13:22:38.751Z,2.88
2022-11-05T13:25:19.977Z,3.00
2022-11-05T13:28:24.621Z,2.65
2022-11-05T13:30:54.888Z,2.75
2022-11-05T13:33:36.156Z,3.30
2022-11-05T13:36:44.526Z,2.95
2022-11-05T13:39:50.036Z,3.95
2022-11-05T13:42:49.090Z,2.78
2022-11-05T13:45:49.521Z,3.15
2022-11-05T13:48:31.127Z,3.20
2022-11-05T13:51:33.547Z,2.95
2022-11-05T13:54:24.273Z,2.90
2022-11-05T13:57:18.466Z,3.00
2022-11-05T14:00:16.925Z,3.47
2022-11-05T14:02:45.359Z,2.55
2022-11-05T14:05:42.111Z,2.70
2022-11-05T14:08:29.099Z,2.60
2022-11-05T14:11:03.576Z,2.97
2022-11-05T14:13:43.849Z,4.18
2022-11-05T14:16:18.236Z,3.95
2022-11-05T14:18:54.788Z,4.55
2022-11-05T14:21:27.350Z,3.35
2022-11-05T14:23:55.097Z,3.22
2022-11-05T14:26:23.423Z,3.00
2022-11-05T14:29:03.719Z,2.72
2022-11-05T14:34:53.699Z,3.13
2022-11-05T14:37:22.377Z,2.75
2022-11-05T14:39:49.453Z,3.58
2022-11-05T14:42:22.322Z,3.38
2022-11-05T14:45:06.204Z,3.35
2022-11-05T14:47:38.455Z,3.20
2022-11-05T14:50:16.018Z,3.22
2022-11-05T14:52:51.853Z,4.72
2022-11-05T14:55:34.617Z,2.75
2022-11-05T14:58:04.624Z,3.45
2022-11-05T15:00:32.277Z,2.80
2022-11-05T15:03:01.873Z,2.80
2022-11-05T15:05:31.261Z,3.22
2022-11-05T15:07:58.817Z,3.38
2022-11-05T15:10:35.404Z,2.53
2022-11-05T15:13:04.564Z,3.28
2022-11-05T15:15:47.034Z,3.28
2022-11-05T15:18:43.035Z,3.40
2022-11-05T15:21:14.712Z,3.40
2022-11-05T15:23:44.175Z,3.92
2022-11-05T15:26:26.031Z,3.10
2022-11-05T15:28:55.033Z,3.70
2022-11-05T15:31:30.789Z,3.85
2022-11-05T15:34:20.977Z,4.20
2022-11-05T15:36:56.704Z,4.20
2022-11-05T15:39:29.567Z,3.83
2022-11-05T15:41:57.849Z,3.83
2022-11-05T15:44:27.024Z,4.28
2022-11-05T15:47:17.119Z,4.82
2022-11-05T15:49:47.081Z,4.45
2022-11-05T15:52:16.356Z,4.80
